sensor_id;sensor_type;location;lat;lon;timestamp;P1;durP1;ratioP1;P2;durP2;ratioP2
27796;SDS011;15177;50.844;4.412;2022-09-14T00:01:20;13.38;;;8.13;;
27796;SDS011;15177;50.844;4.412;2022-09-14T00:03:47;16.48;;;8.90;;
27796;SDS011;15177;50.844;4.412;2022-09-14T00:06:16;12.82;;;8.57;;
27796;SDS011;15177;50.844;4.412;2022-09-14T00:08:42;20.30;;;8.98;;
27796;SDS011;15177;50.844;4.412;2022-09-14T00:11:09;12.63;;;7.90;;
27796;SDS011;15177;50.844;4.412;2022-09-14T00:13:40;19.15;;;8.57;;
27796;SDS011;15177;50.844;4.412;2022-09-14T00:16:08;15.68;;;8.95;;
27796;SDS011;15177;50.844;4.412;2022-09-14T00:18:37;16.00;;;8.65;;
27796;SDS011;15177;50.844;4.412;2022-09-14T00:21:04;12.05;;;8.40;;
27796;SDS011;15177;50.844;4.412;2022-09-14T00:23:31;18.88;;;8.13;;
27796;SDS011;15177;50.844;4.412;2022-09-14T00:26:02;12.70;;;8.30;;
27796;SDS011;15177;50.844;4.412;2022-09-14T00:28:29;15.27;;;7.93;;
27796;SDS011;15177;50.844;4.412;2022-09-14T00:30:55;16.77;;;8.15;;
27796;SDS011;15177;50.844;4.412;2022-09-14T00:33:21;13.85;;;7.28;;
27796;SDS011;15177;50.844;4.412;2022-09-14T00:35:46;16.30;;;7.03;;
27796;SDS011;15177;50.844;4.412;2022-09-14T00:38:12;16.70;;;6.47;;
27796;SDS011;15177;50.844;4.412;2022-09-14T00:40:37;11.25;;;6.07;;
27796;SDS011;15177;50.844;4.412;2022-09-14T00:43:04;10.48;;;6.65;;
27796;SDS011;15177;50.844;4.412;2022-09-14T00:45:37;13.82;;;7.10;;
27796;SDS011;15177;50.844;4.412;2022-09-14T00:48:03;9.95;;;5.90;;
27796;SDS011;15177;50.844;4.412;2022-09-14T00:50:29;14.05;;;6.43;;
27796;SDS011;15177;50.844;4.412;2022-09-14T00:52:55;13.60;;;6.60;;
27796;SDS011;15177;50.844;4.412;2022-09-14T00:55:21;14.73;;;6.53;;
27796;SDS011;15177;50.844;4.412;2022-09-14T00:57:51;14.35;;;6.45;;
27796;SDS011;15177;50.844;4.412;2022-09-14T01:00:19;10.80;;;6.50;;
27796;SDS011;15177;50.844;4.412;2022-09-14T01:02:47;11.43;;;6.00;;
27796;SDS011;15177;50.844;4.412;2022-09-14T01:05:13;13.90;;;6.97;;
27796;SDS011;15177;50.844;4.412;2022-09-14T01:16:02;12.35;;;6.55;;
27796;SDS011;15177;50.844;4.412;2022-09-14T01:18:38;17.23;;;6.38;;
27796;SDS011;15177;50.844;4.412;2022-09-14T01:21:19;12.00;;;6.40;;
27796;SDS011;15177;50.844;4.412;2022-09-14T01:29:37;10.82;;;5.53;;
27796;SDS011;15177;50.844;4.412;2022-09-14T01:32:27;16.88;;;6.32;;
27796;SDS011;15177;50.844;4.412;2022-09-14T01:34:59;12.10;;;5.10;;
27796;SDS011;15177;50.844;4.412;2022-09-14T01:40:21;9.18;;;4.50;;
27796;SDS011;15177;50.844;4.412;2022-09-14T01:42:57;12.60;;;4.72;;
27796;SDS011;15177;50.844;4.412;2022-09-14T01:45:34;13.15;;;5.05;;
27796;SDS011;15177;50.844;4.412;2022-09-14T01:48:06;8.23;;;4.55;;
27796;SDS011;15177;50.844;4.412;2022-09-14T01:50:38;7.50;;;4.55;;
27796;SDS011;15177;50.844;4.412;2022-09-14T01:55:57;10.10;;;4.55;;
27796;SDS011;15177;50.844;4.412;2022-09-14T01:58:29;8.52;;;4.25;;
27796;SDS011;15177;50.844;4.412;2022-09-14T02:00:56;11.75;;;4.03;;
27796;SDS011;15177;50.844;4.412;2022-09-14T02:03:26;9.38;;;4.20;;
27796;SDS011;15177;50.844;4.412;2022-09-14T02:08:25;9.60;;;4.18;;
27796;SDS011;15177;50.844;4.412;2022-09-14T02:10:53;17.25;;;6.10;;
27796;SDS011;15177;50.844;4.412;2022-09-14T02:13:21;6.50;;;4.25;;
27796;SDS011;15177;50.844;4.412;2022-09-14T02:15:48;9.23;;;4.47;;
27796;SDS011;15177;50.844;4.412;2022-09-14T02:18:14;9.02;;;5.40;;
27796;SDS011;15177;50.844;4.412;2022-09-14T02:20:41;11.52;;;4.53;;
27796;SDS011;15177;50.844;4.412;2022-09-14T02:23:14;14.18;;;5.55;;
27796;SDS011;15177;50.844;4.412;2022-09-14T02:25:41;8.23;;;4.28;;
27796;SDS011;15177;50.844;4.412;2022-09-14T02:28:08;9.20;;;4.35;;
27796;SDS011;15177;50.844;4.412;2022-09-14T02:33:22;10.60;;;5.15;;
27796;SDS011;15177;50.844;4.412;2022-09-14T02:36:00;8.35;;;5.18;;
27796;SDS011;15177;50.844;4.412;2022-09-14T02:44:20;12.63;;;6.25;;
27796;SDS011;15177;50.844;4.412;2022-09-14T02:52:54;9.90;;;5.57;;
27796;SDS011;15177;50.844;4.412;2022-09-14T02:55:35;11.57;;;5.18;;
27796;SDS011;15177;50.844;4.412;2022-09-14T02:58:05;14.60;;;5.43;;
27796;SDS011;15177;50.844;4.412;2022-09-14T03:00:36;14.90;;;5.78;;
27796;SDS011;15177;50.844;4.412;2022-09-14T03:03:05;14.20;;;6.22;;
27796;SDS011;15177;50.844;4.412;2022-09-14T03:05:33;13.65;;;5.60;;
27796;SDS011;15177;50.844;4.412;2022-09-14T03:07:59;16.23;;;5.60;;
27796;SDS011;15177;50.844;4.412;2022-09-14T03:10:25;15.23;;;5.97;;
27796;SDS011;15177;50.844;4.412;2022-09-14T03:12:52;15.30;;;5.60;;
27796;SDS011;15177;50.844;4.412;2022-09-14T03:15:18;10.32;;;4.85;;
27796;SDS011;15177;50.844;4.412;2022-09-14T03:17:44;14.77;;;4.93;;
27796;SDS011;15177;50.844;4.412;2022-09-14T03:20:11;13.93;;;5.40;;
27796;SDS011;15177;50.844;4.412;2022-09-14T03:22:38;13.75;;;5.63;;
27796;SDS011;15177;50.844;4.412;2022-09-14T03:25:04;12.23;;;5.78;;
27796;SDS011;15177;50.844;4.412;2022-09-14T03:27:30;14.90;;;6.38;;
27796;SDS011;15177;50.844;4.412;2022-09-14T03:29:55;14.40;;;5.90;;
27796;SDS011;15177;50.844;4.412;2022-09-14T03:32:21;14.82;;;6.78;;
27796;SDS011;15177;50.844;4.412;2022-09-14T03:34:46;8.85;;;6.28;;
27796;SDS011;15177;50.844;4.412;2022-09-14T03:37:12;13.48;;;7.25;;
27796;SDS011;15177;50.844;4.412;2022-09-14T03:39:38;10.50;;;6.00;;
27796;SDS011;15177;50.844;4.412;2022-09-14T03:42:03;15.80;;;7.55;;
27796;SDS011;15177;50.844;4.412;2022-09-14T03:44:29;16.20;;;7.40;;
27796;SDS011;15177;50.844;4.412;2022-09-14T03:46:55;14.05;;;7.00;;
27796;SDS011;15177;50.844;4.412;2022-09-14T03:49:21;16.15;;;8.18;;
27796;SDS011;15177;50.844;4.412;2022-09-14T03:51:46;13.93;;;7.38;;
27796;SDS011;15177;50.844;4.412;2022-09-14T03:54:12;17.23;;;8.65;;
27796;SDS011;15177;50.844;4.412;2022-09-14T03:56:39;18.58;;;9.95;;
27796;SDS011;15177;50.844;4.412;2022-09-14T03:59:06;16.33;;;9.88;;
27796;SDS011;15177;50.844;4.412;2022-09-14T04:01:33;13.90;;;9.90;;
27796;SDS011;15177;50.844;4.412;2022-09-14T04:04:00;19.52;;;9.98;;
27796;SDS011;15177;50.844;4.412;2022-09-14T04:06:26;21.88;;;10.73;;
27796;SDS011;15177;50.844;4.412;2022-09-14T04:08:52;18.45;;;10.82;;
27796;SDS011;15177;50.844;4.412;2022-09-14T04:11:20;21.35;;;12.50;;
27796;SDS011;15177;50.844;4.412;2022-09-14T04:13:47;29.02;;;12.85;;
27796;SDS011;15177;50.844;4.412;2022-09-14T04:16:13;20.00;;;13.40;;
27796;SDS011;15177;50.844;4.412;2022-09-14T04:18:40;23.48;;;14.07;;
27796;SDS011;15177;50.844;4.412;2022-09-14T04:21:07;29.75;;;14.68;;
27796;SDS011;15177;50.844;4.412;2022-09-14T04:23:44;25.40;;;13.63;;
27796;SDS011;15177;50.844;4.412;2022-09-14T04:26:11;26.10;;;14.35;;
27796;SDS011;15177;50.844;4.412;2022-09-14T04:28:38;24.35;;;14.32;;
27796;SDS011;15177;50.844;4.412;2022-09-14T04:31:04;24.17;;;14.35;;
27796;SDS011;15177;50.844;4.412;2022-09-14T04:33:31;23.77;;;14.32;;
27796;SDS011;15177;50.844;4.412;2022-09-14T04:35:58;17.73;;;12.60;;
27796;SDS011;15177;50.844;4.412;2022-09-14T04:38:26;27.08;;;13.57;;
27796;SDS011;15177;50.844;4.412;2022-09-14T04:40:53;21.25;;;13.82;;
27796;SDS011;15177;50.844;4.412;2022-09-14T04:43:19;20.60;;;13.93;;
27796;SDS011;15177;50.844;4.412;2022-09-14T04:45:45;19.33;;;13.20;;
27796;SDS011;15177;50.844;4.412;2022-09-14T04:48:10;26.30;;;14.55;;
27796;SDS011;15177;50.844;4.412;2022-09-14T04:50:36;24.23;;;15.43;;
27796;SDS011;15177;50.844;4.412;2022-09-14T04:53:02;26.80;;;16.40;;
27796;SDS011;15177;50.844;4.412;2022-09-14T04:55:28;26.35;;;16.30;;
27796;SDS011;15177;50.844;4.412;2022-09-14T04:57:53;22.92;;;15.63;;
27796;SDS011;15177;50.844;4.412;2022-09-14T05:00:19;22.98;;;16.80;;
27796;SDS011;15177;50.844;4.412;2022-09-14T05:02:45;22.58;;;16.00;;
27796;SDS011;15177;50.844;4.412;2022-09-14T05:05:11;28.90;;;16.98;;
27796;SDS011;15177;50.844;4.412;2022-09-14T05:07:36;24.55;;;17.13;;
27796;SDS011;15177;50.844;4.412;2022-09-14T05:10:02;26.35;;;17.63;;
27796;SDS011;15177;50.844;4.412;2022-09-14T05:12:28;23.65;;;16.70;;
27796;SDS011;15177;50.844;4.412;2022-09-14T05:14:54;24.13;;;18.42;;
27796;SDS011;15177;50.844;4.412;2022-09-14T05:17:20;26.15;;;17.63;;
27796;SDS011;15177;50.844;4.412;2022-09-14T05:19:46;22.63;;;17.58;;
27796;SDS011;15177;50.844;4.412;2022-09-14T05:22:12;23.77;;;18.42;;
27796;SDS011;15177;50.844;4.412;2022-09-14T05:24:39;23.50;;;17.50;;
27796;SDS011;15177;50.844;4.412;2022-09-14T05:27:05;24.45;;;18.23;;
27796;SDS011;15177;50.844;4.412;2022-09-14T05:29:30;28.08;;;21.10;;
27796;SDS011;15177;50.844;4.412;2022-09-14T05:31:56;24.40;;;20.08;;
27796;SDS011;15177;50.844;4.412;2022-09-14T05:34:22;27.70;;;20.17;;
27796;SDS011;15177;50.844;4.412;2022-09-14T05:36:47;28.15;;;20.20;;
27796;SDS011;15177;50.844;4.412;2022-09-14T05:39:13;29.15;;;20.10;;
27796;SDS011;15177;50.844;4.412;2022-09-14T05:41:39;29.10;;;19.50;;
27796;SDS011;15177;50.844;4.412;2022-09-14T05:44:04;26.52;;;19.70;;
27796;SDS011;15177;50.844;4.412;2022-09-14T05:46:31;31.88;;;20.55;;
27796;SDS011;15177;50.844;4.412;2022-09-14T05:48:57;26.88;;;18.98;;
27796;SDS011;15177;50.844;4.412;2022-09-14T05:51:23;27.70;;;18.92;;
27796;SDS011;15177;50.844;4.412;2022-09-14T05:53:51;28.23;;;19.13;;
27796;SDS011;15177;50.844;4.412;2022-09-14T05:56:21;28.50;;;21.45;;
27796;SDS011;15177;50.844;4.412;2022-09-14T05:58:48;28.42;;;19.88;;
27796;SDS011;15177;50.844;4.412;2022-09-14T06:01:18;25.23;;;19.85;;
27796;SDS011;15177;50.844;4.412;2022-09-14T06:03:47;29.83;;;21.90;;
27796;SDS011;15177;50.844;4.412;2022-09-14T06:06:14;33.72;;;22.35;;
27796;SDS011;15177;50.844;4.412;2022-09-14T06:08:43;31.48;;;22.45;;
27796;SDS011;15177;50.844;4.412;2022-09-14T06:11:11;29.17;;;22.05;;
27796;SDS011;15177;50.844;4.412;2022-09-14T06:13:41;28.55;;;21.83;;
27796;SDS011;15177;50.844;4.412;2022-09-14T06:16:09;31.05;;;22.40;;
27796;SDS011;15177;50.844;4.412;2022-09-14T06:18:37;30.27;;;22.25;;
27796;SDS011;15177;50.844;4.412;2022-09-14T06:21:04;32.50;;;22.73;;
27796;SDS011;15177;50.844;4.412;2022-09-14T06:23:31;32.90;;;23.27;;
27796;SDS011;15177;50.844;4.412;2022-09-14T06:25:58;31.75;;;22.25;;
27796;SDS011;15177;50.844;4.412;2022-09-14T06:28:26;32.45;;;23.50;;
27796;SDS011;15177;50.844;4.412;2022-09-14T06:30:52;28.05;;;22.30;;
27796;SDS011;15177;50.844;4.412;2022-09-14T06:33:19;32.95;;;23.77;;
27796;SDS011;15177;50.844;4.412;2022-09-14T06:35:58;29.05;;;22.17;;
27796;SDS011;15177;50.844;4.412;2022-09-14T06:38:36;33.13;;;24.52;;
27796;SDS011;15177;50.844;4.412;2022-09-14T06:41:06;30.02;;;23.90;;
27796;SDS011;15177;50.844;4.412;2022-09-14T06:43:34;32.63;;;23.85;;
27796;SDS011;15177;50.844;4.412;2022-09-14T06:46:04;29.20;;;22.02;;
27796;SDS011;15177;50.844;4.412;2022-09-14T06:48:43;33.75;;;24.50;;
27796;SDS011;15177;50.844;4.412;2022-09-14T06:53:40;31.95;;;25.48;;
27796;SDS011;15177;50.844;4.412;2022-09-14T06:56:06;32.10;;;24.45;;
27796;SDS011;15177;50.844;4.412;2022-09-14T06:58:34;37.05;;;25.10;;
27796;SDS011;15177;50.844;4.412;2022-09-14T07:01:00;36.53;;;23.05;;
27796;SDS011;15177;50.844;4.412;2022-09-14T07:03:27;39.28;;;24.27;;
27796;SDS011;15177;50.844;4.412;2022-09-14T07:05:59;35.03;;;25.35;;
27796;SDS011;15177;50.844;4.412;2022-09-14T07:08:46;36.42;;;24.95;;
27796;SDS011;15177;50.844;4.412;2022-09-14T07:11:14;36.08;;;26.05;;
27796;SDS011;15177;50.844;4.412;2022-09-14T07:13:41;32.83;;;24.27;;
27796;SDS011;15177;50.844;4.412;2022-09-14T07:16:08;34.97;;;25.02;;
27796;SDS011;15177;50.844;4.412;2022-09-14T07:18:34;37.17;;;26.05;;
27796;SDS011;15177;50.844;4.412;2022-09-14T07:21:01;34.83;;;25.48;;
27796;SDS011;15177;50.844;4.412;2022-09-14T07:23:37;34.25;;;24.73;;
27796;SDS011;15177;50.844;4.412;2022-09-14T07:26:08;39.08;;;25.55;;
27796;SDS011;15177;50.844;4.412;2022-09-14T07:28:36;35.10;;;25.73;;
27796;SDS011;15177;50.844;4.412;2022-09-14T07:31:03;39.22;;;24.42;;
27796;SDS011;15177;50.844;4.412;2022-09-14T07:33:30;35.30;;;24.10;;
27796;SDS011;15177;50.844;4.412;2022-09-14T07:36:03;33.85;;;25.05;;
27796;SDS011;15177;50.844;4.412;2022-09-14T07:38:32;30.33;;;24.02;;
27796;SDS011;15177;50.844;4.412;2022-09-14T07:41:00;31.30;;;24.10;;
27796;SDS011;15177;50.844;4.412;2022-09-14T07:43:26;37.45;;;23.65;;
27796;SDS011;15177;50.844;4.412;2022-09-14T07:45:53;30.85;;;21.25;;
27796;SDS011;15177;50.844;4.412;2022-09-14T07:48:19;26.83;;;20.73;;
27796;SDS011;15177;50.844;4.412;2022-09-14T07:50:45;38.22;;;23.40;;
27796;SDS011;15177;50.844;4.412;2022-09-14T07:53:12;32.10;;;22.75;;
27796;SDS011;15177;50.844;4.412;2022-09-14T07:55:38;35.83;;;22.52;;
27796;SDS011;15177;50.844;4.412;2022-09-14T07:58:04;33.53;;;23.45;;
27796;SDS011;15177;50.844;4.412;2022-09-14T08:00:31;33.95;;;23.27;;
27796;SDS011;15177;50.844;4.412;2022-09-14T08:02:57;35.38;;;23.27;;
27796;SDS011;15177;50.844;4.412;2022-09-14T08:05:23;35.30;;;24.15;;
27796;SDS011;15177;50.844;4.412;2022-09-14T08:07:53;34.72;;;23.23;;
27796;SDS011;15177;50.844;4.412;2022-09-14T08:10:20;33.92;;;24.30;;
27796;SDS011;15177;50.844;4.412;2022-09-14T08:12:50;36.95;;;25.40;;
27796;SDS011;15177;50.844;4.412;2022-09-14T08:15:17;34.10;;;24.83;;
27796;SDS011;15177;50.844;4.412;2022-09-14T08:17:46;35.78;;;25.70;;
27796;SDS011;15177;50.844;4.412;2022-09-14T08:20:12;36.50;;;24.42;;
27796;SDS011;15177;50.844;4.412;2022-09-14T08:22:40;35.03;;;25.23;;
27796;SDS011;15177;50.844;4.412;2022-09-14T08:25:08;39.63;;;23.95;;
27796;SDS011;15177;50.844;4.412;2022-09-14T08:27:34;30.65;;;22.95;;
27796;SDS011;15177;50.844;4.412;2022-09-14T08:30:00;32.15;;;22.80;;
27796;SDS011;15177;50.844;4.412;2022-09-14T08:32:25;32.58;;;22.85;;
27796;SDS011;15177;50.844;4.412;2022-09-14T08:34:51;31.38;;;21.83;;
27796;SDS011;15177;50.844;4.412;2022-09-14T08:37:17;30.88;;;21.55;;
27796;SDS011;15177;50.844;4.412;2022-09-14T08:39:43;35.13;;;22.08;;
27796;SDS011;15177;50.844;4.412;2022-09-14T08:42:13;33.55;;;21.95;;
27796;SDS011;15177;50.844;4.412;2022-09-14T08:44:46;32.80;;;22.33;;
27796;SDS011;15177;50.844;4.412;2022-09-14T08:49:47;28.95;;;21.85;;
27796;SDS011;15177;50.844;4.412;2022-09-14T08:54:54;29.50;;;21.33;;
27796;SDS011;15177;50.844;4.412;2022-09-14T08:57:30;31.17;;;21.35;;
27796;SDS011;15177;50.844;4.412;2022-09-14T09:00:09;29.63;;;22.00;;
27796;SDS011;15177;50.844;4.412;2022-09-14T09:05:33;29.20;;;21.40;;
27796;SDS011;15177;50.844;4.412;2022-09-14T09:08:13;31.67;;;21.40;;
27796;SDS011;15177;50.844;4.412;2022-09-14T09:10:45;22.13;;;17.45;;
27796;SDS011;15177;50.844;4.412;2022-09-14T09:13:14;23.85;;;19.35;;
27796;SDS011;15177;50.844;4.412;2022-09-14T09:15:52;30.83;;;18.70;;
27796;SDS011;15177;50.844;4.412;2022-09-14T09:18:43;26.70;;;17.15;;
27796;SDS011;15177;50.844;4.412;2022-09-14T09:21:21;22.73;;;16.88;;
27796;SDS011;15177;50.844;4.412;2022-09-14T09:23:54;24.27;;;17.52;;
27796;SDS011;15177;50.844;4.412;2022-09-14T09:26:41;26.65;;;18.40;;
27796;SDS011;15177;50.844;4.412;2022-09-14T09:29:07;25.13;;;18.50;;
27796;SDS011;15177;50.844;4.412;2022-09-14T09:31:34;25.77;;;17.92;;
27796;SDS011;15177;50.844;4.412;2022-09-14T09:34:09;27.42;;;18.15;;
27796;SDS011;15177;50.844;4.412;2022-09-14T09:36:39;22.38;;;17.17;;
27796;SDS011;15177;50.844;4.412;2022-09-14T09:39:10;25.23;;;18.20;;
27796;SDS011;15177;50.844;4.412;2022-09-14T09:41:44;23.15;;;17.05;;
27796;SDS011;15177;50.844;4.412;2022-09-14T09:44:13;22.45;;;16.48;;
27796;SDS011;15177;50.844;4.412;2022-09-14T09:46:43;22.73;;;15.60;;
27796;SDS011;15177;50.844;4.412;2022-09-14T09:49:31;20.65;;;15.43;;
27796;SDS011;15177;50.844;4.412;2022-09-14T09:52:07;21.42;;;15.05;;
27796;SDS011;15177;50.844;4.412;2022-09-14T09:54:42;21.05;;;15.07;;
27796;SDS011;15177;50.844;4.412;2022-09-14T09:57:22;20.90;;;15.50;;
27796;SDS011;15177;50.844;4.412;2022-09-14T10:02:51;23.98;;;17.98;;
27796;SDS011;15177;50.844;4.412;2022-09-14T10:10:14;26.60;;;17.00;;
27796;SDS011;15177;50.844;4.412;2022-09-14T10:12:48;27.40;;;15.05;;
27796;SDS011;15177;50.844;4.412;2022-09-14T10:15:33;22.60;;;16.52;;
27796;SDS011;15177;50.844;4.412;2022-09-14T10:20:40;25.38;;;16.63;;
27796;SDS011;15177;50.844;4.412;2022-09-14T10:23:18;20.30;;;16.08;;
27796;SDS011;15177;50.844;4.412;2022-09-14T10:25:49;24.58;;;18.67;;
27796;SDS011;15177;50.844;4.412;2022-09-14T10:28:38;24.08;;;16.13;;
27796;SDS011;15177;50.844;4.412;2022-09-14T10:31:10;23.08;;;18.08;;
27796;SDS011;15177;50.844;4.412;2022-09-14T10:33:43;26.77;;;18.45;;
27796;SDS011;15177;50.844;4.412;2022-09-14T10:38:42;26.48;;;19.35;;
27796;SDS011;15177;50.844;4.412;2022-09-14T10:41:36;28.45;;;19.90;;
27796;SDS011;15177;50.844;4.412;2022-09-14T10:52:45;27.38;;;21.45;;
27796;SDS011;15177;50.844;4.412;2022-09-14T10:58:09;32.03;;;23.88;;
27796;SDS011;15177;50.844;4.412;2022-09-14T11:01:04;33.15;;;24.08;;
27796;SDS011;15177;50.844;4.412;2022-09-14T11:04:29;31.85;;;22.52;;
27796;SDS011;15177;50.844;4.412;2022-09-14T11:06:44;31.27;;;21.77;;
27796;SDS011;15177;50.844;4.412;2022-09-14T11:14:46;26.63;;;19.83;;
27796;SDS011;15177;50.844;4.412;2022-09-14T11:17:20;31.98;;;19.67;;
27796;SDS011;15177;50.844;4.412;2022-09-14T11:19:55;27.58;;;20.65;;
27796;SDS011;15177;50.844;4.412;2022-09-14T11:25:48;24.83;;;20.10;;
27796;SDS011;15177;50.844;4.412;2022-09-14T11:28:56;24.35;;;19.33;;
27796;SDS011;15177;50.844;4.412;2022-09-14T11:31:27;22.92;;;18.35;;
27796;SDS011;15177;50.844;4.412;2022-09-14T11:34:13;23.75;;;18.38;;
27796;SDS011;15177;50.844;4.412;2022-09-14T11:37:07;21.70;;;18.13;;
27796;SDS011;15177;50.844;4.412;2022-09-14T11:39:39;21.17;;;16.77;;
27796;SDS011;15177;50.844;4.412;2022-09-14T11:42:31;24.08;;;16.95;;
27796;SDS011;15177;50.844;4.412;2022-09-14T11:45:02;26.30;;;16.15;;
27796;SDS011;15177;50.844;4.412;2022-09-14T11:47:36;21.73;;;16.35;;
27796;SDS011;15177;50.844;4.412;2022-09-14T11:50:23;20.60;;;16.33;;
27796;SDS011;15177;50.844;4.412;2022-09-14T11:52:56;24.13;;;17.33;;
27796;SDS011;15177;50.844;4.412;2022-09-14T11:55:32;21.17;;;15.88;;
27796;SDS011;15177;50.844;4.412;2022-09-14T11:57:59;17.90;;;14.88;;
27796;SDS011;15177;50.844;4.412;2022-09-14T12:00:42;23.60;;;15.30;;
27796;SDS011;15177;50.844;4.412;2022-09-14T12:03:15;16.48;;;13.95;;
27796;SDS011;15177;50.844;4.412;2022-09-14T12:05:43;17.55;;;14.70;;
27796;SDS011;15177;50.844;4.412;2022-09-14T12:08:24;20.30;;;14.02;;
27796;SDS011;15177;50.844;4.412;2022-09-14T12:13:29;18.52;;;14.30;;
27796;SDS011;15177;50.844;4.412;2022-09-14T12:16:07;19.73;;;15.32;;
27796;SDS011;15177;50.844;4.412;2022-09-14T12:18:34;20.13;;;14.60;;
27796;SDS011;15177;50.844;4.412;2022-09-14T12:21:03;19.63;;;13.45;;
27796;SDS011;15177;50.844;4.412;2022-09-14T12:59:20;17.65;;;12.55;;
27796;SDS011;15177;50.844;4.412;2022-09-14T13:04:24;20.05;;;13.43;;
27796;SDS011;15177;50.844;4.412;2022-09-14T13:06:53;22.77;;;12.55;;
27796;SDS011;15177;50.844;4.412;2022-09-14T13:09:21;16.63;;;12.25;;
27796;SDS011;15177;50.844;4.412;2022-09-14T13:11:52;14.90;;;12.25;;
27796;SDS011;15177;50.844;4.412;2022-09-14T13:14:29;16.58;;;12.88;;
27796;SDS011;15177;50.844;4.412;2022-09-14T13:16:59;17.90;;;13.75;;
27796;SDS011;15177;50.844;4.412;2022-09-14T13:19:31;18.45;;;13.68;;
27796;SDS011;15177;50.844;4.412;2022-09-14T13:21:58;21.10;;;14.88;;
27796;SDS011;15177;50.844;4.412;2022-09-14T13:26:52;21.38;;;16.92;;
27796;SDS011;15177;50.844;4.412;2022-09-14T13:29:23;23.38;;;16.95;;
27796;SDS011;15177;50.844;4.412;2022-09-14T13:31:51;22.08;;;16.02;;
27796;SDS011;15177;50.844;4.412;2022-09-14T13:34:24;22.40;;;15.05;;
27796;SDS011;15177;50.844;4.412;2022-09-14T13:36:52;21.30;;;16.73;;
27796;SDS011;15177;50.844;4.412;2022-09-14T13:39:24;24.95;;;16.73;;
27796;SDS011;15177;50.844;4.412;2022-09-14T13:42:14;27.35;;;18.10;;
27796;SDS011;15177;50.844;4.412;2022-09-14T13:44:42;27.10;;;18.67;;
27796;SDS011;15177;50.844;4.412;2022-09-14T13:47:14;24.38;;;17.77;;
27796;SDS011;15177;50.844;4.412;2022-09-14T13:49:42;24.60;;;16.92;;
27796;SDS011;15177;50.844;4.412;2022-09-14T13:54:47;29.42;;;17.63;;
27796;SDS011;15177;50.844;4.412;2022-09-14T13:57:18;32.33;;;19.70;;
27796;SDS011;15177;50.844;4.412;2022-09-14T14:02:36;27.25;;;19.10;;
27796;SDS011;15177;50.844;4.412;2022-09-14T14:05:02;27.17;;;20.05;;
27796;SDS011;15177;50.844;4.412;2022-09-14T14:07:31;26.80;;;19.33;;
27796;SDS011;15177;50.844;4.412;2022-09-14T14:09:58;30.45;;;20.55;;
27796;SDS011;15177;50.844;4.412;2022-09-14T14:12:31;27.20;;;20.67;;
27796;SDS011;15177;50.844;4.412;2022-09-14T14:15:43;28.17;;;19.80;;
27796;SDS011;15177;50.844;4.412;2022-09-14T14:17:50;30.13;;;20.42;;
27796;SDS011;15177;50.844;4.412;2022-09-14T14:28:03;29.98;;;20.38;;
27796;SDS011;15177;50.844;4.412;2022-09-14T14:30:32;27.13;;;18.48;;
27796;SDS011;15177;50.844;4.412;2022-09-14T14:33:02;25.88;;;19.17;;
27796;SDS011;15177;50.844;4.412;2022-09-14T14:35:30;25.75;;;18.98;;
27796;SDS011;15177;50.844;4.412;2022-09-14T14:37:56;24.27;;;18.67;;
27796;SDS011;15177;50.844;4.412;2022-09-14T14:40:23;22.40;;;17.45;;
27796;SDS011;15177;50.844;4.412;2022-09-14T14:42:51;26.58;;;19.08;;
27796;SDS011;15177;50.844;4.412;2022-09-14T14:45:19;26.15;;;19.13;;
27796;SDS011;15177;50.844;4.412;2022-09-14T14:47:47;21.40;;;18.33;;
27796;SDS011;15177;50.844;4.412;2022-09-14T14:50:20;25.52;;;19.00;;
27796;SDS011;15177;50.844;4.412;2022-09-14T14:52:50;30.17;;;20.10;;
27796;SDS011;15177;50.844;4.412;2022-09-14T14:55:16;25.35;;;19.33;;
27796;SDS011;15177;50.844;4.412;2022-09-14T14:57:41;30.08;;;21.75;;
27796;SDS011;15177;50.844;4.412;2022-09-14T15:00:14;23.80;;;16.65;;
27796;SDS011;15177;50.844;4.412;2022-09-14T15:02:44;24.23;;;16.45;;
27796;SDS011;15177;50.844;4.412;2022-09-14T15:05:10;18.45;;;15.95;;
27796;SDS011;15177;50.844;4.412;2022-09-14T15:07:37;22.58;;;15.88;;
27796;SDS011;15177;50.844;4.412;2022-09-14T15:10:06;25.10;;;17.17;;
27796;SDS011;15177;50.844;4.412;2022-09-14T15:12:33;21.20;;;14.77;;
27796;SDS011;15177;50.844;4.412;2022-09-14T15:14:59;22.10;;;14.68;;
27796;SDS011;15177;50.844;4.412;2022-09-14T15:17:25;21.77;;;15.07;;
27796;SDS011;15177;50.844;4.412;2022-09-14T15:19:51;21.05;;;15.35;;
27796;SDS011;15177;50.844;4.412;2022-09-14T15:22:17;17.83;;;14.45;;
27796;SDS011;15177;50.844;4.412;2022-09-14T15:24:43;18.42;;;15.02;;
27796;SDS011;15177;50.844;4.412;2022-09-14T15:27:08;20.50;;;14.35;;
27796;SDS011;15177;50.844;4.412;2022-09-14T15:29:34;18.42;;;12.93;;
27796;SDS011;15177;50.844;4.412;2022-09-14T15:32:00;18.40;;;13.70;;
27796;SDS011;15177;50.844;4.412;2022-09-14T15:34:26;21.60;;;14.73;;
27796;SDS011;15177;50.844;4.412;2022-09-14T15:36:52;24.75;;;14.98;;
27796;SDS011;15177;50.844;4.412;2022-09-14T15:39:19;21.95;;;15.07;;
27796;SDS011;15177;50.844;4.412;2022-09-14T15:41:46;19.90;;;15.77;;
27796;SDS011;15177;50.844;4.412;2022-09-14T15:44:13;24.35;;;14.70;;
27796;SDS011;15177;50.844;4.412;2022-09-14T15:46:39;19.92;;;13.77;;
27796;SDS011;15177;50.844;4.412;2022-09-14T15:49:10;19.92;;;11.90;;
27796;SDS011;15177;50.844;4.412;2022-09-14T15:51:37;14.85;;;12.32;;
27796;SDS011;15177;50.844;4.412;2022-09-14T15:54:06;16.10;;;11.50;;
27796;SDS011;15177;50.844;4.412;2022-09-14T15:56:31;14.23;;;10.77;;
27796;SDS011;15177;50.844;4.412;2022-09-14T15:58:57;12.88;;;10.38;;
27796;SDS011;15177;50.844;4.412;2022-09-14T16:01:25;13.02;;;10.02;;
27796;SDS011;15177;50.844;4.412;2022-09-14T16:03:58;15.68;;;10.40;;
27796;SDS011;15177;50.844;4.412;2022-09-14T16:06:25;18.30;;;12.10;;
27796;SDS011;15177;50.844;4.412;2022-09-14T16:08:52;19.73;;;12.85;;
27796;SDS011;15177;50.844;4.412;2022-09-14T16:11:21;23.90;;;13.82;;
27796;SDS011;15177;50.844;4.412;2022-09-14T16:13:50;24.23;;;14.32;;
27796;SDS011;15177;50.844;4.412;2022-09-14T16:16:16;23.58;;;13.60;;
27796;SDS011;15177;50.844;4.412;2022-09-14T16:18:43;24.75;;;15.52;;
27796;SDS011;15177;50.844;4.412;2022-09-14T16:23:46;23.58;;;16.85;;
27796;SDS011;15177;50.844;4.412;2022-09-14T16:26:18;26.13;;;16.05;;
27796;SDS011;15177;50.844;4.412;2022-09-14T16:28:45;21.27;;;16.05;;
27796;SDS011;15177;50.844;4.412;2022-09-14T16:31:31;27.52;;;17.60;;
27796;SDS011;15177;50.844;4.412;2022-09-14T16:33:59;30.42;;;17.42;;
27796;SDS011;15177;50.844;4.412;2022-09-14T16:36:28;27.73;;;18.00;;
27796;SDS011;15177;50.844;4.412;2022-09-14T16:38:58;25.80;;;17.55;;
27796;SDS011;15177;50.844;4.412;2022-09-14T16:41:25;23.42;;;16.65;;
27796;SDS011;15177;50.844;4.412;2022-09-14T16:43:53;26.80;;;18.23;;
27796;SDS011;15177;50.844;4.412;2022-09-14T16:46:20;29.05;;;19.45;;
27796;SDS011;15177;50.844;4.412;2022-09-14T16:48:47;23.88;;;17.73;;
27796;SDS011;15177;50.844;4.412;2022-09-14T16:51:17;25.05;;;17.70;;
27796;SDS011;15177;50.844;4.412;2022-09-14T16:53:44;22.52;;;16.83;;
27796;SDS011;15177;50.844;4.412;2022-09-14T16:56:15;22.90;;;16.67;;
27796;SDS011;15177;50.844;4.412;2022-09-14T16:59:00;20.45;;;14.27;;
27796;SDS011;15177;50.844;4.412;2022-09-14T17:01:28;21.92;;;14.50;;